GLO7061 SABE-SBBR
Flight info
| Callsign | GLO7061 |
|---|---|
| Flight time | 2h 54m |
| Altitude | 37000 |
| Route | KUKEN UL324 CUARA UM532 ILPAV |
| Aircraft | B738/M-SDFGIKLORWXY/LB1 |
Departure
| Time | 2026-05-04 00:42 |
|---|---|
| Airport | Aeroparque Jorge Newbery (SABE) |
Arrival
| Time | 2026-05-04 03:37 |
|---|---|
| Airport | Presidente Juscelino Kubitschek International Airport (SBBR) |
| Time | Latitude | Longitude | Altitude | Speed | Heading |
|---|---|---|---|---|---|
| 2026-05-03 23:52 | -34.55658 | -58.41550 | 26 ft | 0 kts | 2° |
| 2026-05-04 00:28 | -34.55665 | -58.41551 | 26 ft | 2 kts | 357° |
| 2026-05-04 00:28 | -34.55680 | -58.41548 | 26 ft | 2 kts | 344° |
| 2026-05-04 00:29 | -34.55694 | -58.41542 | 26 ft | 2 kts | 333° |
| 2026-05-04 00:29 | -34.55707 | -58.41533 | 26 ft | 2 kts | 322° |
| 2026-05-04 00:29 | -34.55718 | -58.41521 | 26 ft | 2 kts | 312° |
| 2026-05-04 00:29 | -34.55726 | -58.41509 | 26 ft | 2 kts | 302° |
| 2026-05-04 00:30 | -34.55732 | -58.41496 | 26 ft | 0 kts | 295° |
| 2026-05-04 00:30 | -34.55732 | -58.41495 | 26 ft | 0 kts | 295° |
| 2026-05-04 00:31 | -34.55725 | -58.41515 | 26 ft | 5 kts | 288° |
| 2026-05-04 00:32 | -34.55734 | -58.41568 | 26 ft | 9 kts | 236° |
| 2026-05-04 00:32 | -34.55778 | -58.41597 | 26 ft | 10 kts | 172° |
| 2026-05-04 00:32 | -34.55821 | -58.41528 | 26 ft | 5 kts | 115° |
| 2026-05-04 00:32 | -34.55848 | -58.41465 | 26 ft | 12 kts | 118° |
| 2026-05-04 00:33 | -34.55905 | -58.41343 | 26 ft | 20 kts | 118° |
| 2026-05-04 00:33 | -34.56049 | -58.41091 | 26 ft | 0 kts | 125° |
| 2026-05-04 00:36 | -34.56057 | -58.41078 | 26 ft | 6 kts | 125° |
| 2026-05-04 00:37 | -34.56101 | -58.41003 | 26 ft | 15 kts | 126° |
| 2026-05-04 00:37 | -34.56174 | -58.40878 | 26 ft | 13 kts | 124° |
| 2026-05-04 00:37 | -34.56213 | -58.40781 | 26 ft | 12 kts | 112° |
| 2026-05-04 00:37 | -34.56244 | -58.40693 | 26 ft | 10 kts | 114° |
| 2026-05-04 00:38 | -34.56281 | -58.40622 | 26 ft | 9 kts | 125° |
| 2026-05-04 00:38 | -34.56310 | -58.40573 | 26 ft | 2 kts | 129° |
| 2026-05-04 00:38 | -34.56321 | -58.40560 | 26 ft | 1 kts | 139° |
| 2026-05-04 00:38 | -34.56340 | -58.40541 | 26 ft | 5 kts | 141° |
| 2026-05-04 00:39 | -34.56379 | -58.40503 | 26 ft | 9 kts | 140° |
| 2026-05-04 00:39 | -34.56419 | -58.40460 | 26 ft | 0 kts | 138° |
| 2026-05-04 00:40 | -34.56422 | -58.40457 | 26 ft | 2 kts | 138° |
| 2026-05-04 00:40 | -34.56453 | -58.40422 | 26 ft | 8 kts | 137° |
| 2026-05-04 00:40 | -34.56496 | -58.40390 | 26 ft | 6 kts | 172° |
| 2026-05-04 00:41 | -34.56529 | -58.40404 | 26 ft | 4 kts | 220° |
| 2026-05-04 00:41 | -34.56541 | -58.40428 | 26 ft | 3 kts | 251° |
| 2026-05-04 00:41 | -34.56534 | -58.40476 | 26 ft | 10 kts | 304° |
| 2026-05-04 00:41 | -34.56354 | -58.40803 | 26 ft | 85 kts | 304° |
| 2026-05-04 00:42 | -34.55939 | -58.41555 | 26 ft | 149 kts | 304° |
| 2026-05-04 00:42 | -34.55251 | -58.42763 | 193 ft | 192 kts | 303° |
| 2026-05-04 00:42 | -34.54611 | -58.44044 | 1390 ft | 176 kts | 308° |
| 2026-05-04 00:42 | -34.53700 | -58.44955 | 2228 ft | 176 kts | 341° |
| 2026-05-04 00:43 | -34.52461 | -58.45152 | 2945 ft | 190 kts | 2° |
| 2026-05-04 00:43 | -34.51134 | -58.44746 | 3611 ft | 210 kts | 20° |
| 2026-05-04 00:43 | -34.49815 | -58.43818 | 4280 ft | 229 kts | 28° |
| 2026-05-04 00:43 | -34.48474 | -58.42750 | 5061 ft | 238 kts | 28° |
| 2026-05-04 00:44 | -34.47067 | -58.41660 | 5876 ft | 246 kts | 27° |
| 2026-05-04 00:44 | -34.45584 | -58.40546 | 6684 ft | 255 kts | 27° |
| 2026-05-04 00:44 | -34.44039 | -58.39402 | 7296 ft | 271 kts | 27° |
| 2026-05-04 00:44 | -34.42396 | -58.38187 | 8036 ft | 281 kts | 27° |
| 2026-05-04 00:45 | -34.40705 | -58.36946 | 8799 ft | 288 kts | 26° |
| 2026-05-04 00:45 | -34.38970 | -58.35754 | 9594 ft | 293 kts | 25° |
| 2026-05-04 00:45 | -34.37149 | -58.34546 | 10333 ft | 299 kts | 25° |
| 2026-05-04 00:45 | -34.35275 | -58.33301 | 10778 ft | 315 kts | 25° |
| 2026-05-04 00:46 | -34.33327 | -58.31995 | 11259 ft | 330 kts | 26° |
| 2026-05-04 00:46 | -34.31278 | -58.30609 | 11632 ft | 347 kts | 26° |
| 2026-05-04 00:46 | -34.29110 | -58.29137 | 12028 ft | 363 kts | 27° |
| 2026-05-04 00:46 | -34.26851 | -58.27601 | 12406 ft | 378 kts | 27° |
| 2026-05-04 00:47 | -34.24555 | -58.26038 | 13016 ft | 385 kts | 27° |
| 2026-05-04 00:47 | -34.22203 | -58.24436 | 13622 ft | 391 kts | 27° |
| 2026-05-04 00:47 | -34.19834 | -58.22824 | 14236 ft | 395 kts | 27° |
| 2026-05-04 00:47 | -34.17405 | -58.21254 | 14851 ft | 398 kts | 23° |
| 2026-05-04 00:48 | -34.14849 | -58.19865 | 15481 ft | 401 kts | 20° |
| 2026-05-04 00:48 | -34.12258 | -58.18613 | 16064 ft | 404 kts | 18° |
| 2026-05-04 00:48 | -34.09617 | -58.17397 | 16623 ft | 408 kts | 17° |
| 2026-05-04 00:48 | -34.06969 | -58.16185 | 17212 ft | 411 kts | 17° |
| 2026-05-04 00:49 | -34.04274 | -58.14938 | 17723 ft | 415 kts | 17° |
| 2026-05-04 00:49 | -34.01577 | -58.13670 | 18307 ft | 417 kts | 17° |
| 2026-05-04 00:49 | -33.98894 | -58.12391 | 19209 ft | 409 kts | 17° |
| 2026-05-04 00:49 | -33.96296 | -58.11140 | 20007 ft | 403 kts | 17° |
| 2026-05-04 00:50 | -33.93699 | -58.09889 | 20606 ft | 403 kts | 17° |
| 2026-05-04 00:50 | -33.91103 | -58.08641 | 21118 ft | 404 kts | 16° |
| 2026-05-04 00:50 | -33.88450 | -58.07368 | 21557 ft | 408 kts | 16° |
| 2026-05-04 00:50 | -33.85831 | -58.06114 | 21977 ft | 411 kts | 16° |
| 2026-05-04 00:51 | -33.83168 | -58.04840 | 22359 ft | 415 kts | 16° |
| 2026-05-04 00:51 | -33.80457 | -58.03542 | 22791 ft | 418 kts | 16° |
| 2026-05-04 00:51 | -33.77725 | -58.02233 | 23189 ft | 421 kts | 16° |
| 2026-05-04 00:51 | -33.75007 | -58.00934 | 23508 ft | 426 kts | 16° |
| 2026-05-04 00:52 | -33.72247 | -57.99614 | 23977 ft | 426 kts | 16° |
| 2026-05-04 00:52 | -33.69467 | -57.98286 | 24335 ft | 430 kts | 16° |
| 2026-05-04 00:52 | -33.66710 | -57.96969 | 24727 ft | 432 kts | 16° |
| 2026-05-04 00:52 | -33.63910 | -57.95633 | 25093 ft | 435 kts | 16° |
| 2026-05-04 00:53 | -33.61077 | -57.94281 | 25411 ft | 440 kts | 16° |
| 2026-05-04 00:53 | -33.58243 | -57.92929 | 25870 ft | 440 kts | 16° |
| 2026-05-04 00:53 | -33.55346 | -57.91548 | 26152 ft | 445 kts | 16° |
| 2026-05-04 00:53 | -33.52471 | -57.90179 | 26527 ft | 447 kts | 16° |
| 2026-05-04 00:54 | -33.49601 | -57.88811 | 26924 ft | 448 kts | 17° |
| 2026-05-04 00:54 | -33.46685 | -57.87421 | 27198 ft | 452 kts | 17° |
| 2026-05-04 00:54 | -33.43748 | -57.86023 | 27513 ft | 455 kts | 17° |
| 2026-05-04 00:54 | -33.40807 | -57.84622 | 27914 ft | 456 kts | 16° |
| 2026-05-04 00:55 | -33.37826 | -57.83203 | 28196 ft | 459 kts | 17° |
| 2026-05-04 00:55 | -33.34855 | -57.81792 | 28469 ft | 462 kts | 17° |
| 2026-05-04 00:55 | -33.31867 | -57.80372 | 28769 ft | 465 kts | 17° |
| 2026-05-04 00:55 | -33.28865 | -57.78947 | 29085 ft | 467 kts | 17° |
| 2026-05-04 00:56 | -33.25831 | -57.77506 | 29416 ft | 468 kts | 17° |
| 2026-05-04 00:56 | -33.22797 | -57.76069 | 29647 ft | 472 kts | 17° |
| 2026-05-04 00:56 | -33.19717 | -57.74612 | 29946 ft | 474 kts | 17° |
| 2026-05-04 00:56 | -33.16650 | -57.73161 | 30256 ft | 475 kts | 17° |
| 2026-05-04 00:57 | -33.13571 | -57.71704 | 30539 ft | 477 kts | 17° |
| 2026-05-04 00:57 | -33.10419 | -57.70216 | 30808 ft | 480 kts | 17° |
| 2026-05-04 00:57 | -33.07295 | -57.68744 | 31049 ft | 482 kts | 17° |
| 2026-05-04 00:57 | -33.04143 | -57.67259 | 31325 ft | 484 kts | 17° |
| 2026-05-04 00:58 | -33.01008 | -57.65782 | 31605 ft | 486 kts | 17° |
| 2026-05-04 00:58 | -32.97813 | -57.64278 | 31828 ft | 489 kts | 17° |
| 2026-05-04 00:58 | -32.94645 | -57.62788 | 32082 ft | 491 kts | 17° |
| 2026-05-04 00:58 | -32.91453 | -57.61290 | 32277 ft | 493 kts | 17° |
| 2026-05-04 00:59 | -32.88230 | -57.59777 | 32530 ft | 495 kts | 17° |
| 2026-05-04 00:59 | -32.84985 | -57.58255 | 32736 ft | 497 kts | 17° |
| 2026-05-04 00:59 | -32.81775 | -57.56750 | 33026 ft | 497 kts | 17° |
| 2026-05-04 00:59 | -32.78547 | -57.55235 | 33378 ft | 496 kts | 17° |
| 2026-05-04 01:00 | -32.75346 | -57.53733 | 33729 ft | 494 kts | 17° |
| 2026-05-04 01:00 | -32.72153 | -57.52238 | 33997 ft | 494 kts | 17° |
| 2026-05-04 01:00 | -32.68900 | -57.50719 | 34271 ft | 495 kts | 17° |
| 2026-05-04 01:00 | -32.65731 | -57.49239 | 34601 ft | 493 kts | 17° |
| 2026-05-04 01:01 | -32.62529 | -57.47745 | 34883 ft | 493 kts | 17° |
| 2026-05-04 01:01 | -32.59314 | -57.46247 | 35145 ft | 494 kts | 17° |
| 2026-05-04 01:01 | -32.56109 | -57.44755 | 35384 ft | 494 kts | 17° |
| 2026-05-04 01:01 | -32.52889 | -57.43256 | 35663 ft | 494 kts | 17° |
| 2026-05-04 01:02 | -32.49694 | -57.41769 | 35964 ft | 493 kts | 17° |
| 2026-05-04 01:02 | -32.46505 | -57.40286 | 36219 ft | 493 kts | 17° |
| 2026-05-04 01:02 | -32.43281 | -57.38788 | 36475 ft | 492 kts | 17° |
| 2026-05-04 01:02 | -32.40122 | -57.37322 | 36712 ft | 492 kts | 17° |
| 2026-05-04 01:03 | -32.36890 | -57.35823 | 36921 ft | 492 kts | 17° |
| 2026-05-04 01:03 | -32.33672 | -57.34332 | 37089 ft | 492 kts | 16° |
| 2026-05-04 01:03 | -32.30503 | -57.32865 | 37092 ft | 490 kts | 16° |
| 2026-05-04 01:04 | -32.24174 | -57.29933 | 37098 ft | 484 kts | 16° |
| 2026-05-04 01:04 | -32.17838 | -57.27010 | 37098 ft | 487 kts | 16° |
| 2026-05-04 01:05 | -32.11476 | -57.24078 | 37101 ft | 487 kts | 16° |
| 2026-05-04 01:05 | -32.05156 | -57.21167 | 37102 ft | 487 kts | 16° |
| 2026-05-04 01:06 | -31.98809 | -57.18252 | 37097 ft | 487 kts | 16° |
| 2026-05-04 01:06 | -31.92441 | -57.15329 | 37094 ft | 487 kts | 17° |
| 2026-05-04 01:07 | -31.86137 | -57.12389 | 37100 ft | 489 kts | 17° |
| 2026-05-04 01:07 | -31.79772 | -57.09316 | 37090 ft | 490 kts | 18° |
| 2026-05-04 01:08 | -31.73421 | -57.06294 | 37096 ft | 488 kts | 17° |
| 2026-05-04 01:08 | -31.67075 | -57.03399 | 37088 ft | 487 kts | 16° |
| 2026-05-04 01:09 | -31.60696 | -57.00525 | 37093 ft | 489 kts | 17° |
| 2026-05-04 01:09 | -31.54297 | -56.97642 | 37089 ft | 489 kts | 16° |
| 2026-05-04 01:10 | -31.47902 | -56.94754 | 37087 ft | 488 kts | 16° |
| 2026-05-04 01:10 | -31.41557 | -56.91890 | 37088 ft | 487 kts | 17° |
| 2026-05-04 01:11 | -31.35176 | -56.89011 | 37089 ft | 488 kts | 17° |
| 2026-05-04 01:11 | -31.28802 | -56.86139 | 37087 ft | 487 kts | 17° |
| 2026-05-04 01:12 | -31.22441 | -56.83279 | 37086 ft | 488 kts | 17° |
| 2026-05-04 01:12 | -31.16063 | -56.80413 | 37086 ft | 488 kts | 16° |
| 2026-05-04 01:13 | -31.09723 | -56.77570 | 37085 ft | 489 kts | 16° |
| 2026-05-04 01:13 | -31.03310 | -56.74697 | 37084 ft | 490 kts | 16° |
| 2026-05-04 01:14 | -30.96909 | -56.71835 | 37081 ft | 490 kts | 17° |
| 2026-05-04 01:14 | -30.90541 | -56.68991 | 37081 ft | 490 kts | 17° |
| 2026-05-04 01:15 | -30.84089 | -56.66110 | 37083 ft | 489 kts | 16° |
| 2026-05-04 01:15 | -30.77700 | -56.63245 | 37081 ft | 489 kts | 17° |
| 2026-05-04 01:16 | -30.71307 | -56.60377 | 37084 ft | 488 kts | 17° |
| 2026-05-04 01:16 | -30.64939 | -56.57578 | 37080 ft | 488 kts | 15° |
| 2026-05-04 01:17 | -30.58501 | -56.54829 | 37080 ft | 489 kts | 15° |
| 2026-05-04 01:17 | -30.52065 | -56.52097 | 37081 ft | 488 kts | 15° |
| 2026-05-04 01:18 | -30.45658 | -56.49373 | 37083 ft | 489 kts | 15° |
| 2026-05-04 01:18 | -30.39323 | -56.46389 | 37085 ft | 493 kts | 22° |
| 2026-05-04 01:19 | -30.33317 | -56.42298 | 37087 ft | 498 kts | 31° |
| 2026-05-04 01:19 | -30.27585 | -56.37617 | 37092 ft | 502 kts | 33° |
| 2026-05-04 01:20 | -30.21954 | -56.32834 | 37081 ft | 498 kts | 33° |
| 2026-05-04 01:20 | -30.16321 | -56.28083 | 37088 ft | 501 kts | 32° |
| 2026-05-04 01:21 | -30.10642 | -56.23358 | 37071 ft | 500 kts | 32° |
| 2026-05-04 01:21 | -30.04973 | -56.18688 | 37075 ft | 500 kts | 32° |
| 2026-05-04 01:22 | -29.99241 | -56.13992 | 37072 ft | 500 kts | 32° |
| 2026-05-04 01:22 | -29.93584 | -56.09369 | 37077 ft | 500 kts | 32° |
| 2026-05-04 01:23 | -29.87852 | -56.04691 | 37077 ft | 498 kts | 32° |
| 2026-05-04 01:23 | -29.82198 | -56.00084 | 37080 ft | 500 kts | 32° |
| 2026-05-04 01:24 | -29.76510 | -55.95456 | 37079 ft | 499 kts | 32° |
| 2026-05-04 01:24 | -29.70784 | -55.90802 | 37083 ft | 500 kts | 32° |
| 2026-05-04 01:25 | -29.65063 | -55.86160 | 37084 ft | 499 kts | 32° |
| 2026-05-04 01:25 | -29.59357 | -55.81535 | 37077 ft | 499 kts | 32° |
| 2026-05-04 01:26 | -29.53662 | -55.76927 | 37078 ft | 499 kts | 32° |
| 2026-05-04 01:26 | -29.47977 | -55.72332 | 37077 ft | 498 kts | 31° |
| 2026-05-04 01:27 | -29.42243 | -55.67705 | 37079 ft | 499 kts | 32° |
| 2026-05-04 01:27 | -29.36552 | -55.63119 | 37075 ft | 498 kts | 32° |
| 2026-05-04 01:28 | -29.30879 | -55.58554 | 37079 ft | 498 kts | 31° |
| 2026-05-04 01:28 | -29.25156 | -55.53957 | 37071 ft | 498 kts | 32° |
| 2026-05-04 01:29 | -29.19487 | -55.49409 | 37075 ft | 500 kts | 31° |
| 2026-05-04 01:29 | -29.13767 | -55.44824 | 37072 ft | 498 kts | 31° |
| 2026-05-04 01:30 | -29.08075 | -55.40266 | 37070 ft | 496 kts | 31° |
| 2026-05-04 01:30 | -29.02415 | -55.35743 | 37067 ft | 496 kts | 31° |
| 2026-05-04 01:31 | -28.96685 | -55.31171 | 37068 ft | 498 kts | 31° |
| 2026-05-04 01:31 | -28.90992 | -55.26635 | 37070 ft | 497 kts | 30° |
| 2026-05-04 01:32 | -28.85308 | -55.22109 | 37069 ft | 497 kts | 30° |
| 2026-05-04 01:32 | -28.79626 | -55.17596 | 37064 ft | 498 kts | 31° |
| 2026-05-04 01:33 | -28.73887 | -55.13041 | 37059 ft | 497 kts | 30° |
| 2026-05-04 01:33 | -28.68167 | -55.08506 | 37056 ft | 497 kts | 30° |
| 2026-05-04 01:34 | -28.62427 | -55.03962 | 37060 ft | 498 kts | 30° |
| 2026-05-04 01:34 | -28.56717 | -54.99449 | 37055 ft | 499 kts | 30° |
| 2026-05-04 01:35 | -28.51011 | -54.94944 | 37055 ft | 498 kts | 30° |
| 2026-05-04 01:35 | -28.45307 | -54.90447 | 37053 ft | 498 kts | 30° |
| 2026-05-04 01:36 | -28.39559 | -54.85923 | 37046 ft | 499 kts | 30° |
| 2026-05-04 01:36 | -28.33839 | -54.81426 | 37047 ft | 499 kts | 30° |
| 2026-05-04 01:37 | -28.28105 | -54.76924 | 37043 ft | 498 kts | 30° |
| 2026-05-04 01:37 | -28.22349 | -54.72411 | 37046 ft | 498 kts | 30° |
| 2026-05-04 01:38 | -28.16631 | -54.67964 | 37048 ft | 499 kts | 30° |
| 2026-05-04 01:38 | -28.10835 | -54.63493 | 37041 ft | 499 kts | 29° |
| 2026-05-04 01:39 | -28.05103 | -54.59078 | 37047 ft | 496 kts | 29° |
| 2026-05-04 01:39 | -27.99333 | -54.54641 | 37050 ft | 498 kts | 29° |
| 2026-05-04 01:40 | -27.93572 | -54.50214 | 37050 ft | 498 kts | 29° |
| 2026-05-04 01:40 | -27.87824 | -54.45795 | 37052 ft | 497 kts | 29° |
| 2026-05-04 01:41 | -27.82065 | -54.41425 | 37055 ft | 498 kts | 28° |
| 2026-05-04 01:41 | -27.76252 | -54.37095 | 37061 ft | 498 kts | 28° |
| 2026-05-04 01:42 | -27.70459 | -54.32798 | 37059 ft | 495 kts | 27° |
| 2026-05-04 01:42 | -27.64657 | -54.28496 | 37062 ft | 496 kts | 27° |
| 2026-05-04 01:43 | -27.58869 | -54.24195 | 37057 ft | 497 kts | 27° |
| 2026-05-04 01:43 | -27.53116 | -54.19871 | 37061 ft | 497 kts | 28° |
| 2026-05-04 01:44 | -27.47343 | -54.15516 | 37066 ft | 495 kts | 27° |
| 2026-05-04 01:44 | -27.41613 | -54.11198 | 37061 ft | 496 kts | 28° |
| 2026-05-04 01:45 | -27.35829 | -54.06853 | 37072 ft | 499 kts | 27° |
| 2026-05-04 01:45 | -27.27185 | -54.00373 | 37080 ft | 496 kts | 27° |
| 2026-05-04 01:46 | -27.21391 | -53.96039 | 37075 ft | 497 kts | 27° |
| 2026-05-04 01:46 | -27.15603 | -53.91715 | 37072 ft | 496 kts | 27° |
| 2026-05-04 01:47 | -27.09794 | -53.87378 | 37066 ft | 497 kts | 27° |
| 2026-05-04 01:47 | -27.04048 | -53.83094 | 37067 ft | 494 kts | 27° |
| 2026-05-04 01:48 | -26.98279 | -53.78798 | 37070 ft | 495 kts | 27° |
| 2026-05-04 01:48 | -26.92502 | -53.74502 | 37074 ft | 496 kts | 27° |
| 2026-05-04 01:49 | -26.86749 | -53.70229 | 37080 ft | 494 kts | 27° |
| 2026-05-04 01:49 | -26.80965 | -53.65945 | 37088 ft | 495 kts | 27° |
| 2026-05-04 01:50 | -26.75037 | -53.62068 | 37095 ft | 489 kts | 20° |
| 2026-05-04 01:50 | -26.68847 | -53.58821 | 37097 ft | 484 kts | 17° |
| 2026-05-04 01:51 | -26.62649 | -53.55803 | 37103 ft | 483 kts | 16° |
| 2026-05-04 01:51 | -26.56407 | -53.52782 | 37106 ft | 485 kts | 16° |
| 2026-05-04 01:52 | -26.50236 | -53.49756 | 37115 ft | 483 kts | 17° |
| 2026-05-04 01:52 | -26.43992 | -53.46674 | 37112 ft | 484 kts | 17° |
| 2026-05-04 01:53 | -26.37793 | -53.43601 | 37114 ft | 485 kts | 17° |
| 2026-05-04 01:53 | -26.31578 | -53.40518 | 37118 ft | 484 kts | 17° |
| 2026-05-04 01:54 | -26.25397 | -53.37456 | 37121 ft | 484 kts | 17° |
| 2026-05-04 01:54 | -26.19198 | -53.34390 | 37120 ft | 483 kts | 16° |
| 2026-05-04 01:55 | -26.12987 | -53.31321 | 37127 ft | 484 kts | 16° |
| 2026-05-04 01:55 | -26.06846 | -53.28289 | 37126 ft | 481 kts | 16° |
| 2026-05-04 01:56 | -26.00662 | -53.25240 | 37137 ft | 483 kts | 16° |
| 2026-05-04 01:56 | -25.94488 | -53.22206 | 37123 ft | 486 kts | 16° |
| 2026-05-04 01:57 | -25.88279 | -53.19151 | 37114 ft | 482 kts | 16° |
| 2026-05-04 01:57 | -25.82118 | -53.16122 | 37108 ft | 482 kts | 16° |
| 2026-05-04 01:58 | -25.75967 | -53.13105 | 37102 ft | 482 kts | 16° |
| 2026-05-04 01:58 | -25.69771 | -53.10067 | 37106 ft | 480 kts | 16° |
| 2026-05-04 01:59 | -25.63591 | -53.07045 | 37104 ft | 485 kts | 16° |
| 2026-05-04 01:59 | -25.57414 | -53.04024 | 37107 ft | 481 kts | 16° |
| 2026-05-04 02:00 | -25.51237 | -53.01009 | 37103 ft | 483 kts | 16° |
| 2026-05-04 02:00 | -25.45068 | -52.98000 | 37105 ft | 483 kts | 16° |
| 2026-05-04 02:01 | -25.38852 | -52.94973 | 37108 ft | 484 kts | 16° |
| 2026-05-04 02:01 | -25.32658 | -52.91958 | 37116 ft | 481 kts | 16° |
| 2026-05-04 02:02 | -25.26482 | -52.88955 | 37122 ft | 484 kts | 16° |
| 2026-05-04 02:02 | -25.20298 | -52.85949 | 37127 ft | 483 kts | 16° |
| 2026-05-04 02:03 | -25.14124 | -52.82960 | 37126 ft | 482 kts | 16° |
| 2026-05-04 02:03 | -25.07933 | -52.79980 | 37138 ft | 482 kts | 16° |
| 2026-05-04 02:04 | -25.01804 | -52.77031 | 37134 ft | 482 kts | 16° |
| 2026-05-04 02:04 | -24.95644 | -52.74069 | 37125 ft | 482 kts | 16° |
| 2026-05-04 02:05 | -24.89414 | -52.71077 | 37123 ft | 481 kts | 16° |
| 2026-05-04 02:05 | -24.83241 | -52.68115 | 37125 ft | 482 kts | 16° |
| 2026-05-04 02:06 | -24.77110 | -52.65153 | 37122 ft | 482 kts | 16° |
| 2026-05-04 02:06 | -24.70961 | -52.62159 | 37115 ft | 482 kts | 16° |
| 2026-05-04 02:07 | -24.64765 | -52.59143 | 37118 ft | 483 kts | 16° |
| 2026-05-04 02:07 | -24.58604 | -52.56154 | 37127 ft | 483 kts | 16° |
| 2026-05-04 02:08 | -24.52422 | -52.53176 | 37132 ft | 483 kts | 15° |
| 2026-05-04 02:08 | -24.46212 | -52.50195 | 37126 ft | 484 kts | 15° |
| 2026-05-04 02:09 | -24.40024 | -52.47229 | 37130 ft | 484 kts | 15° |
| 2026-05-04 02:09 | -24.33842 | -52.44276 | 37129 ft | 483 kts | 15° |
| 2026-05-04 02:10 | -24.27682 | -52.41349 | 37129 ft | 482 kts | 15° |
| 2026-05-04 02:10 | -24.21531 | -52.38427 | 37118 ft | 481 kts | 15° |
| 2026-05-04 02:11 | -24.15321 | -52.35474 | 37118 ft | 482 kts | 15° |
| 2026-05-04 02:11 | -24.09146 | -52.32534 | 37110 ft | 482 kts | 15° |
| 2026-05-04 02:12 | -24.02941 | -52.29580 | 37105 ft | 482 kts | 15° |
| 2026-05-04 02:12 | -23.96789 | -52.26654 | 37104 ft | 481 kts | 15° |
| 2026-05-04 02:13 | -23.90598 | -52.23716 | 37100 ft | 482 kts | 15° |
| 2026-05-04 02:13 | -23.84439 | -52.20792 | 37095 ft | 480 kts | 15° |
| 2026-05-04 02:14 | -23.78266 | -52.17865 | 37091 ft | 480 kts | 15° |
| 2026-05-04 02:14 | -23.72085 | -52.14939 | 37090 ft | 480 kts | 15° |
| 2026-05-04 02:15 | -23.65925 | -52.12025 | 37093 ft | 484 kts | 15° |
| 2026-05-04 02:15 | -23.59668 | -52.09080 | 37097 ft | 490 kts | 15° |
| 2026-05-04 02:16 | -23.53423 | -52.06133 | 37105 ft | 486 kts | 15° |
| 2026-05-04 02:16 | -23.47166 | -52.03180 | 37109 ft | 486 kts | 15° |
| 2026-05-04 02:17 | -23.40919 | -52.00238 | 37110 ft | 487 kts | 15° |
| 2026-05-04 02:17 | -23.34714 | -51.97319 | 37111 ft | 485 kts | 15° |
| 2026-05-04 02:18 | -23.28515 | -51.94407 | 37102 ft | 484 kts | 15° |
| 2026-05-04 02:18 | -23.22302 | -51.91492 | 37105 ft | 482 kts | 15° |
| 2026-05-04 02:19 | -23.16085 | -51.88577 | 37102 ft | 481 kts | 15° |
| 2026-05-04 02:19 | -23.09881 | -51.85677 | 37102 ft | 485 kts | 15° |
| 2026-05-04 02:20 | -23.03672 | -51.82773 | 37103 ft | 481 kts | 15° |
| 2026-05-04 02:20 | -22.97430 | -51.79853 | 37103 ft | 482 kts | 15° |
| 2026-05-04 02:21 | -22.91220 | -51.76957 | 37103 ft | 484 kts | 15° |
| 2026-05-04 02:21 | -22.85017 | -51.74062 | 37099 ft | 480 kts | 15° |
| 2026-05-04 02:22 | -22.78860 | -51.71192 | 37099 ft | 483 kts | 15° |
| 2026-05-04 02:22 | -22.72715 | -51.68325 | 37095 ft | 480 kts | 15° |
| 2026-05-04 02:23 | -22.66508 | -51.65434 | 37096 ft | 484 kts | 15° |
| 2026-05-04 02:23 | -22.60306 | -51.62548 | 37095 ft | 482 kts | 15° |
| 2026-05-04 02:24 | -22.54114 | -51.59668 | 37097 ft | 483 kts | 15° |
| 2026-05-04 02:24 | -22.47886 | -51.56776 | 37094 ft | 482 kts | 15° |
| 2026-05-04 02:25 | -22.41729 | -51.53920 | 37097 ft | 484 kts | 15° |
| 2026-05-04 02:25 | -22.35542 | -51.51050 | 37097 ft | 480 kts | 15° |
| 2026-05-04 02:26 | -22.29302 | -51.48162 | 37096 ft | 483 kts | 15° |
| 2026-05-04 02:26 | -22.23058 | -51.45276 | 37101 ft | 481 kts | 15° |
| 2026-05-04 02:27 | -22.16877 | -51.42415 | 37102 ft | 482 kts | 16° |
| 2026-05-04 02:27 | -22.10731 | -51.39287 | 37102 ft | 487 kts | 20° |
| 2026-05-04 02:28 | -22.04662 | -51.35930 | 37093 ft | 488 kts | 20° |
| 2026-05-04 02:28 | -21.98586 | -51.32544 | 37085 ft | 485 kts | 20° |
| 2026-05-04 02:29 | -21.92524 | -51.29203 | 37086 ft | 485 kts | 20° |
| 2026-05-04 02:29 | -21.86469 | -51.25901 | 37081 ft | 485 kts | 19° |
| 2026-05-04 02:30 | -21.80378 | -51.22600 | 37082 ft | 486 kts | 19° |
| 2026-05-04 02:30 | -21.74338 | -51.19334 | 37083 ft | 484 kts | 19° |
| 2026-05-04 02:31 | -21.68286 | -51.16020 | 37081 ft | 485 kts | 20° |
| 2026-05-04 02:31 | -21.62311 | -51.12661 | 37083 ft | 484 kts | 20° |
| 2026-05-04 02:32 | -21.56312 | -51.09280 | 37081 ft | 485 kts | 20° |
| 2026-05-04 02:32 | -21.50332 | -51.05894 | 37073 ft | 483 kts | 21° |
| 2026-05-04 02:33 | -21.44382 | -51.02504 | 37067 ft | 485 kts | 21° |
| 2026-05-04 02:33 | -21.38403 | -50.99082 | 37070 ft | 484 kts | 21° |
| 2026-05-04 02:34 | -21.32427 | -50.95662 | 37070 ft | 484 kts | 21° |
| 2026-05-04 02:34 | -21.26431 | -50.92240 | 37072 ft | 485 kts | 21° |
| 2026-05-04 02:35 | -21.20473 | -50.88842 | 37071 ft | 483 kts | 21° |
| 2026-05-04 02:35 | -21.14523 | -50.85450 | 37060 ft | 483 kts | 21° |
| 2026-05-04 02:36 | -21.08578 | -50.82067 | 37060 ft | 483 kts | 21° |
| 2026-05-04 02:36 | -21.02671 | -50.78714 | 37052 ft | 480 kts | 21° |
| 2026-05-04 02:37 | -20.96700 | -50.75331 | 37051 ft | 482 kts | 21° |
| 2026-05-04 02:37 | -20.90763 | -50.71971 | 37051 ft | 482 kts | 21° |
| 2026-05-04 02:38 | -20.84825 | -50.68613 | 37053 ft | 482 kts | 21° |
| 2026-05-04 02:38 | -20.78879 | -50.65251 | 37052 ft | 483 kts | 21° |
| 2026-05-04 02:39 | -20.72928 | -50.61931 | 37055 ft | 481 kts | 21° |
| 2026-05-04 02:39 | -20.66910 | -50.58640 | 37053 ft | 482 kts | 21° |
| 2026-05-04 02:40 | -20.60917 | -50.55376 | 37054 ft | 482 kts | 21° |
| 2026-05-04 02:40 | -20.55936 | -50.52659 | 37051 ft | 480 kts | 21° |
| 2026-05-04 02:41 | -20.48939 | -50.48842 | 37050 ft | 481 kts | 21° |
| 2026-05-04 02:41 | -20.42976 | -50.45589 | 37054 ft | 481 kts | 21° |
| 2026-05-04 02:42 | -20.36991 | -50.42323 | 37058 ft | 481 kts | 21° |
| 2026-05-04 02:42 | -20.30999 | -50.39057 | 37062 ft | 482 kts | 21° |
| 2026-05-04 02:43 | -20.24980 | -50.35779 | 37065 ft | 483 kts | 21° |
| 2026-05-04 02:43 | -20.18973 | -50.32507 | 37062 ft | 480 kts | 21° |
| 2026-05-04 02:44 | -20.12966 | -50.29241 | 37062 ft | 481 kts | 21° |
| 2026-05-04 02:44 | -20.07011 | -50.26010 | 37058 ft | 480 kts | 21° |
| 2026-05-04 02:45 | -20.01015 | -50.22765 | 37054 ft | 480 kts | 21° |
| 2026-05-04 02:45 | -19.95075 | -50.19559 | 37052 ft | 479 kts | 21° |
| 2026-05-04 02:46 | -19.89085 | -50.16331 | 37054 ft | 481 kts | 21° |
| 2026-05-04 02:46 | -19.83106 | -50.13112 | 37052 ft | 482 kts | 21° |
| 2026-05-04 02:47 | -19.77097 | -50.09875 | 37053 ft | 480 kts | 21° |
| 2026-05-04 02:47 | -19.71130 | -50.06665 | 37056 ft | 480 kts | 21° |
| 2026-05-04 02:48 | -19.65172 | -50.03462 | 37060 ft | 479 kts | 21° |
| 2026-05-04 02:48 | -19.59247 | -50.00280 | 37064 ft | 478 kts | 21° |
| 2026-05-04 02:49 | -19.53287 | -49.97081 | 37069 ft | 478 kts | 21° |
| 2026-05-04 02:49 | -19.47353 | -49.93900 | 37075 ft | 478 kts | 21° |
| 2026-05-04 02:50 | -19.41416 | -49.90718 | 37076 ft | 477 kts | 21° |
| 2026-05-04 02:50 | -19.35465 | -49.87534 | 37074 ft | 478 kts | 21° |
| 2026-05-04 02:51 | -19.29505 | -49.84307 | 37080 ft | 476 kts | 22° |
| 2026-05-04 02:51 | -19.23616 | -49.81054 | 37084 ft | 479 kts | 22° |
| 2026-05-04 02:52 | -19.17674 | -49.77764 | 37083 ft | 478 kts | 22° |
| 2026-05-04 02:52 | -19.11810 | -49.74522 | 37081 ft | 475 kts | 22° |
| 2026-05-04 02:53 | -19.05919 | -49.71276 | 37080 ft | 478 kts | 22° |
| 2026-05-04 02:53 | -19.00039 | -49.68041 | 37082 ft | 476 kts | 22° |
| 2026-05-04 02:54 | -18.94149 | -49.64803 | 37088 ft | 475 kts | 22° |
| 2026-05-04 02:54 | -18.88242 | -49.61563 | 37086 ft | 475 kts | 22° |
| 2026-05-04 02:55 | -18.79387 | -49.56714 | 37093 ft | 475 kts | 22° |
| 2026-05-04 02:56 | -18.73528 | -49.53524 | 37096 ft | 474 kts | 22° |
| 2026-05-04 02:56 | -18.67672 | -49.50343 | 37089 ft | 474 kts | 22° |
| 2026-05-04 02:57 | -18.61780 | -49.47143 | 37095 ft | 473 kts | 22° |
| 2026-05-04 02:57 | -18.55904 | -49.43955 | 37092 ft | 475 kts | 23° |
| 2026-05-04 02:58 | -18.50030 | -49.40768 | 37095 ft | 473 kts | 23° |
| 2026-05-04 02:58 | -18.44138 | -49.37575 | 37095 ft | 475 kts | 23° |
| 2026-05-04 02:59 | -18.38268 | -49.34395 | 37101 ft | 474 kts | 22° |
| 2026-05-04 02:59 | -18.32385 | -49.31210 | 37104 ft | 474 kts | 22° |
| 2026-05-04 03:00 | -18.26458 | -49.28005 | 37109 ft | 474 kts | 22° |
| 2026-05-04 03:00 | -18.20606 | -49.24840 | 37119 ft | 472 kts | 22° |
| 2026-05-04 03:01 | -18.14758 | -49.21684 | 37129 ft | 473 kts | 22° |
| 2026-05-04 03:01 | -18.08868 | -49.18507 | 37129 ft | 474 kts | 23° |
| 2026-05-04 03:02 | -18.02968 | -49.15356 | 37140 ft | 473 kts | 22° |
| 2026-05-04 03:02 | -17.97081 | -49.12232 | 37140 ft | 473 kts | 22° |
| 2026-05-04 03:03 | -17.91198 | -49.09112 | 37139 ft | 472 kts | 22° |
| 2026-05-04 03:03 | -17.85284 | -49.05975 | 37131 ft | 471 kts | 22° |
| 2026-05-04 03:04 | -17.79410 | -49.02858 | 37130 ft | 469 kts | 22° |
| 2026-05-04 03:04 | -17.73661 | -48.99497 | 37127 ft | 475 kts | 30° |
| 2026-05-04 03:05 | -17.68398 | -48.95217 | 37136 ft | 478 kts | 38° |
| 2026-05-04 03:05 | -17.63453 | -48.90525 | 37142 ft | 481 kts | 40° |
| 2026-05-04 03:06 | -17.58552 | -48.85722 | 37148 ft | 481 kts | 40° |
| 2026-05-04 03:06 | -17.53651 | -48.80940 | 37145 ft | 481 kts | 40° |
| 2026-05-04 03:07 | -17.48750 | -48.76203 | 37149 ft | 480 kts | 39° |
| 2026-05-04 03:07 | -17.43785 | -48.71439 | 37155 ft | 481 kts | 39° |
| 2026-05-04 03:08 | -17.38860 | -48.66727 | 37160 ft | 480 kts | 39° |
| 2026-05-04 03:08 | -17.33887 | -48.61980 | 37168 ft | 480 kts | 39° |
| 2026-05-04 03:09 | -17.28928 | -48.57252 | 37171 ft | 480 kts | 39° |
| 2026-05-04 03:09 | -17.24003 | -48.52554 | 37166 ft | 477 kts | 39° |
| 2026-05-04 03:10 | -17.19085 | -48.47872 | 37158 ft | 478 kts | 39° |
| 2026-05-04 03:10 | -17.14176 | -48.43204 | 37152 ft | 477 kts | 39° |
| 2026-05-04 03:11 | -17.09225 | -48.38498 | 37152 ft | 477 kts | 39° |
| 2026-05-04 03:11 | -17.04290 | -48.33812 | 37153 ft | 477 kts | 39° |
| 2026-05-04 03:12 | -16.99377 | -48.29147 | 37159 ft | 477 kts | 39° |
| 2026-05-04 03:12 | -16.94448 | -48.24471 | 37157 ft | 477 kts | 39° |
| 2026-05-04 03:13 | -16.89541 | -48.19820 | 37155 ft | 476 kts | 39° |
| 2026-05-04 03:13 | -16.84417 | -48.15422 | 37143 ft | 472 kts | 30° |
| 2026-05-04 03:14 | -16.78531 | -48.12573 | 37147 ft | 463 kts | 13° |
| 2026-05-04 03:14 | -16.72244 | -48.11152 | 37145 ft | 459 kts | 3° |
| 2026-05-04 03:15 | -16.65890 | -48.11125 | 37154 ft | 450 kts | 348° |
| 2026-05-04 03:15 | -16.59693 | -48.12257 | 37158 ft | 448 kts | 343° |
| 2026-05-04 03:16 | -16.53635 | -48.13665 | 37166 ft | 447 kts | 343° |
| 2026-05-04 03:16 | -16.47514 | -48.15120 | 37173 ft | 448 kts | 343° |
| 2026-05-04 03:17 | -16.41426 | -48.16538 | 37169 ft | 447 kts | 343° |
| 2026-05-04 03:17 | -16.35335 | -48.17932 | 37168 ft | 448 kts | 343° |
| 2026-05-04 03:18 | -16.29246 | -48.19312 | 37165 ft | 448 kts | 343° |
| 2026-05-04 03:18 | -16.23095 | -48.20699 | 37166 ft | 449 kts | 344° |
| 2026-05-04 03:19 | -16.17085 | -48.21892 | 37161 ft | 429 kts | 349° |
| 2026-05-04 03:19 | -16.14123 | -48.21998 | 37161 ft | 418 kts | 1° |
| 2026-05-04 03:19 | -16.11269 | -48.21589 | 37168 ft | 407 kts | 7° |
| 2026-05-04 03:20 | -16.05827 | -48.20253 | 37112 ft | 396 kts | 11° |
| 2026-05-04 03:20 | -16.03176 | -48.19471 | 36261 ft | 393 kts | 15° |
| 2026-05-04 03:20 | -16.00598 | -48.18422 | 34486 ft | 403 kts | 22° |
| 2026-05-04 03:20 | -15.98159 | -48.17059 | 32751 ft | 409 kts | 30° |
| 2026-05-04 03:21 | -15.95824 | -48.15353 | 31191 ft | 412 kts | 37° |
| 2026-05-04 03:21 | -15.93725 | -48.13387 | 29757 ft | 410 kts | 46° |
| 2026-05-04 03:21 | -15.91973 | -48.11120 | 28598 ft | 400 kts | 60° |
| 2026-05-04 03:21 | -15.91022 | -48.08454 | 27473 ft | 388 kts | 85° |
| 2026-05-04 03:22 | -15.91197 | -48.05743 | 26466 ft | 374 kts | 109° |
| 2026-05-04 03:22 | -15.92382 | -48.03439 | 25327 ft | 364 kts | 134° |
| 2026-05-04 03:22 | -15.94360 | -48.01903 | 24102 ft | 357 kts | 160° |
| 2026-05-04 03:22 | -15.96731 | -48.01408 | 22915 ft | 350 kts | 183° |
| 2026-05-04 03:23 | -15.99082 | -48.01799 | 21760 ft | 343 kts | 200° |
| 2026-05-04 03:23 | -16.01264 | -48.02678 | 20723 ft | 335 kts | 206° |
| 2026-05-04 03:23 | -16.03340 | -48.03683 | 19673 ft | 330 kts | 207° |
| 2026-05-04 03:23 | -16.05368 | -48.04719 | 18642 ft | 324 kts | 207° |
| 2026-05-04 03:24 | -16.07362 | -48.05764 | 17633 ft | 319 kts | 208° |
| 2026-05-04 03:24 | -16.09326 | -48.06810 | 16612 ft | 314 kts | 207° |
| 2026-05-04 03:24 | -16.11277 | -48.07756 | 15563 ft | 311 kts | 201° |
| 2026-05-04 03:24 | -16.13263 | -48.08526 | 14594 ft | 307 kts | 199° |
| 2026-05-04 03:25 | -16.15193 | -48.09365 | 13893 ft | 294 kts | 212° |
| 2026-05-04 03:25 | -16.16685 | -48.10678 | 13827 ft | 272 kts | 231° |
| 2026-05-04 03:25 | -16.17652 | -48.12386 | 13759 ft | 274 kts | 252° |
| 2026-05-04 03:25 | -16.17983 | -48.14307 | 13203 ft | 271 kts | 272° |
| 2026-05-04 03:26 | -16.17735 | -48.16250 | 12265 ft | 275 kts | 289° |
| 2026-05-04 03:26 | -16.16948 | -48.18019 | 11246 ft | 277 kts | 309° |
| 2026-05-04 03:26 | -16.15626 | -48.19404 | 10360 ft | 269 kts | 329° |
| 2026-05-04 03:26 | -16.14012 | -48.20303 | 9511 ft | 260 kts | 345° |
| 2026-05-04 03:27 | -16.12278 | -48.20638 | 8756 ft | 250 kts | 5° |
| 2026-05-04 03:27 | -16.10615 | -48.20442 | 8590 ft | 230 kts | 14° |
| 2026-05-04 03:27 | -16.09036 | -48.20141 | 8580 ft | 229 kts | 14° |
| 2026-05-04 03:27 | -16.07455 | -48.19838 | 8585 ft | 230 kts | 14° |
| 2026-05-04 03:28 | -16.05884 | -48.19546 | 8580 ft | 229 kts | 14° |
| 2026-05-04 03:28 | -16.04307 | -48.19256 | 8577 ft | 230 kts | 13° |
| 2026-05-04 03:28 | -16.02770 | -48.18976 | 8587 ft | 217 kts | 14° |
| 2026-05-04 03:28 | -16.01251 | -48.18697 | 8592 ft | 220 kts | 14° |
| 2026-05-04 03:29 | -15.99739 | -48.18418 | 8590 ft | 219 kts | 14° |
| 2026-05-04 03:29 | -15.98252 | -48.18126 | 8590 ft | 219 kts | 16° |
| 2026-05-04 03:29 | -15.96765 | -48.17797 | 8587 ft | 210 kts | 17° |
| 2026-05-04 03:29 | -15.95361 | -48.17480 | 8591 ft | 197 kts | 17° |
| 2026-05-04 03:30 | -15.94060 | -48.17188 | 8472 ft | 185 kts | 17° |
| 2026-05-04 03:30 | -15.92805 | -48.16906 | 8422 ft | 182 kts | 17° |
| 2026-05-04 03:30 | -15.91557 | -48.16625 | 8374 ft | 184 kts | 17° |
| 2026-05-04 03:30 | -15.90293 | -48.16342 | 8269 ft | 184 kts | 16° |
| 2026-05-04 03:31 | -15.89062 | -48.15962 | 8154 ft | 180 kts | 31° |
| 2026-05-04 03:31 | -15.88172 | -48.15118 | 8048 ft | 176 kts | 62° |
| 2026-05-04 03:31 | -15.87798 | -48.13902 | 7727 ft | 176 kts | 80° |
| 2026-05-04 03:31 | -15.87660 | -48.12690 | 7515 ft | 167 kts | 82° |
| 2026-05-04 03:32 | -15.87554 | -48.11500 | 7111 ft | 164 kts | 84° |
| 2026-05-04 03:32 | -15.87474 | -48.10345 | 6767 ft | 156 kts | 84° |
| 2026-05-04 03:32 | -15.87405 | -48.09259 | 6454 ft | 143 kts | 84° |
| 2026-05-04 03:32 | -15.87340 | -48.08253 | 6315 ft | 138 kts | 84° |
| 2026-05-04 03:33 | -15.87275 | -48.07256 | 6167 ft | 140 kts | 85° |
| 2026-05-04 03:33 | -15.87210 | -48.06237 | 5950 ft | 140 kts | 85° |
| 2026-05-04 03:33 | -15.87145 | -48.05222 | 5774 ft | 142 kts | 85° |
| 2026-05-04 03:33 | -15.87080 | -48.04201 | 5585 ft | 142 kts | 86° |
| 2026-05-04 03:34 | -15.87013 | -48.03171 | 5397 ft | 143 kts | 85° |
| 2026-05-04 03:34 | -15.86948 | -48.02136 | 5206 ft | 144 kts | 86° |
| 2026-05-04 03:34 | -15.86881 | -48.01107 | 5017 ft | 144 kts | 86° |
| 2026-05-04 03:34 | -15.86815 | -48.00063 | 4832 ft | 145 kts | 86° |
| 2026-05-04 03:35 | -15.86748 | -47.99018 | 4643 ft | 146 kts | 86° |
| 2026-05-04 03:35 | -15.86680 | -47.97965 | 4452 ft | 147 kts | 86° |
| 2026-05-04 03:35 | -15.86613 | -47.96899 | 4262 ft | 148 kts | 87° |
| 2026-05-04 03:35 | -15.86543 | -47.95842 | 4071 ft | 148 kts | 87° |
| 2026-05-04 03:36 | -15.86474 | -47.94757 | 3874 ft | 150 kts | 87° |
| 2026-05-04 03:36 | -15.86403 | -47.93682 | 3689 ft | 152 kts | 88° |
| 2026-05-04 03:36 | -15.86335 | -47.92574 | 3485 ft | 153 kts | 88° |
| 2026-05-04 03:36 | -15.86271 | -47.91577 | 3472 ft | 108 kts | 91° |
| 2026-05-04 03:37 | -15.86239 | -47.90986 | 3482 ft | 65 kts | 87° |
| 2026-05-04 03:37 | -15.86350 | -47.90733 | 3489 ft | 30 kts | 133° |
| 2026-05-04 03:37 | -15.86422 | -47.90718 | 3489 ft | 9 kts | 270° |
| 2026-05-04 03:37 | -15.86416 | -47.90787 | 3488 ft | 9 kts | 271° |
| 2026-05-04 03:38 | -15.86420 | -47.90851 | 3488 ft | 8 kts | 265° |
| 2026-05-04 03:38 | -15.86425 | -47.90922 | 3487 ft | 10 kts | 265° |
| 2026-05-04 03:38 | -15.86434 | -47.91009 | 3486 ft | 13 kts | 264° |
| 2026-05-04 03:38 | -15.86440 | -47.91115 | 3484 ft | 15 kts | 266° |
| 2026-05-04 03:39 | -15.86448 | -47.91239 | 3482 ft | 18 kts | 266° |
| 2026-05-04 03:39 | -15.86457 | -47.91373 | 3482 ft | 19 kts | 266° |
| 2026-05-04 03:39 | -15.86466 | -47.91521 | 3479 ft | 21 kts | 266° |
| 2026-05-04 03:39 | -15.86476 | -47.91683 | 3477 ft | 22 kts | 265° |
| 2026-05-04 03:40 | -15.86534 | -47.91810 | 3478 ft | 18 kts | 190° |
| 2026-05-04 03:40 | -15.86612 | -47.91890 | 3479 ft | 17 kts | 265° |
| 2026-05-04 03:40 | -15.86627 | -47.91990 | 3480 ft | 7 kts | 218° |
| 2026-05-04 03:40 | -15.86662 | -47.92005 | 3481 ft | 2 kts | 200° |
| 2026-05-04 03:41 | -15.86679 | -47.92010 | 3482 ft | 3 kts | 198° |
| 2026-05-04 03:41 | -15.86706 | -47.92019 | 3483 ft | 4 kts | 197° |
| 2026-05-04 03:41 | -15.86721 | -47.92024 | 3483 ft | 0 kts | 196° |